Detall de PIREP

Printer-friendly versionPDF version

[2013/07/09 10:05:00]
Flight IATA:CT0003
Pilot Number:042
Company ICAO:CAT
Aircraft Type:F100/A
PAX:19
Aircraft Registration:PFJ
Departing Airport: LIEA
Destination Airport: LICJ
Alternate Airport:LIRA
Online: VATSIM
Route:SODIO UM732 CAR UM871 KAPIL
Flight Level:F290
No Slew and time accel
No pause
Crash detect
Detect pilot in Cockpit between each 30 and 45 minutes
10:05 Zero fuel Weight: 81826 Lbs, Fuel Weight: 22687 Lbs
10:05 VATSIM:LIEA 090920Z 20009KT 160V220 9999 SCT035 27/19 Q1018
10:05 VATSIM:LICJ 090920Z 36007KT 9999 FEW016 26/22 Q1018
10:05 VOICE CATALONIAN
10:17 Parking Brakes off
10:23 Take-off
10:23 Take off Weight: 103946 Lbs
10:23 Wind: 000º @ 000 Knots Heading: 205º
10:23 POS N40º 37´ 31´´ E008º 17´ 12´´
10:23 Gear Up: 179 Knots
10:23 Flaps:2 at 179 Knots
10:23 Flaps:1 at 185 Knots
10:24 Flaps:0 at 196 Knots
10:38 Wind:306º@081 Knots Heading: 154º Ground Speed: 365 Knots Altitude 27211 ft
10:39 TOC
10:39 Fuel Weight: 20102 Lb
10:53 Wind:288º@072 Knots Heading: 110º Ground Speed: 530 Knots Altitude 29127 ft
10:54 TOD
10:54 Fuel Weight: 18755 Lb
11:03 Flaps:1 at 240 Knots
11:08 Wind:307º@036 Knots Heading: 313º Ground Speed: 201 Knots Altitude 5830 ft
11:13 Flaps:2 at 160 Knots
11:14 Gear Down: 162 Knots
11:14 Flaps:3 at 163 Knots
11:15 Flaps:4 at 156 Knots
11:17 TouchDown:Rate -311 ft/min Speed: 120 Knots
11:18 VATSIM:LICJ 091050Z 02010KT 9999 FEW016 26/21 Q1018
11:18 Land
11:18 Wind:103º@004 Knots
11:18 Heading: 066º
11:18 Flight Duration: 00:55
11:18 Landing Weight: 99328 Lbs
11:18 POS N38º 10´ 46´´ E013º 06´ 10´´
11:21 Parking brakes on
11:21 Block to Block Duration: 01:04
11:21 Final Fuel: 17356 Lbls
11:21 Spent Fuel: 5330 Lbls
11:21 Flight Length: 326 NM
11:21 TOD Land Length: 110 NM

Exportar CSV

Powered by Drupal - Modified by Danger4k